Winslow, Indiana
Current Conditions -  °F | °C
As of 2:15 PM on Sunday 25 Jan 2015 (Local Time) from KHNB Reporting Station
Overcast Overcast  
Wind Chill: 36°   Ceiling: 2900
Heat Index: 41°   Visibility: 7mi
Dew Point: 37°   Wind: 7mph
Humidity: 87%   Direction: 150°SSE
Pressure: 29.61"   Gusts: NA
Location:  38.38°N, 87.21°W
Report Text: KHNB 252015Z AUTO 15006KT 7SM FEW016 OVC029 05/03 A2961 RMK AO1 P0002
Loading
Personal Weather Stations






























Interactive Weather Map New forecast layout! Learn more

10-Day Weather Forecast

Advertisements
Track Severe Weather on mobile